Latest Weather Observations for Cape Ferguson

IDQ60801

Issued at 10:02 pm EST Friday 28 April 2017 (issued every 30 minutes, with the page automatically refreshed every 10 minutes)

About weather observations | Map of weather stations | Latest weather observations for QLD | Other Formats
Station Details ID: 032182 Name: CAPE FERGUSON NTC AWS Lat: -19.28 Lon: 147.06 Height: 0.0 m
Data from the previous 72 hours. | See also: Recent months for locations in Queensland
Date/Time
EST
Temp
°C
App
Temp
°C
Dew
Point
°C
Rel
Hum
%
Delta-T
°C
Wind Press
QNH
hPa
Press
MSL
hPa
Rain since
9am
mm
Dir  Spd
km/h
Gust
km/h
Spd
kts
Gust
kts
28/10:00pm 22.5 - - - - SSW 19 22 10 12 1016.8 1016.8 -
28/09:30pm 22.8 - - - - S 20 24 11 13 1016.7 1016.7 -
28/09:00pm 23.1 - - - - S 28 33 15 18 1016.5 1016.5 -
28/08:30pm 23.2 - - - - S 32 35 17 19 1016.2 1016.2 -
28/08:00pm 23.6 - - - - S 24 30 13 16 1015.9 1015.9 -
28/07:30pm 23.9 - - - - S 26 32 14 17 1015.4 1015.4 -
28/07:00pm 24.0 - - - - SSE 24 30 13 16 1014.9 1014.9 -
28/06:30pm 24.8 - - - - SSE 28 33 15 18 1014.4 1014.4 -
28/06:00pm 25.6 - - - - SSE 20 24 11 13 1013.9 1013.9 -
28/05:30pm 25.7 - - - - SSE 17 20 9 11 1013.6 1013.6 -
28/05:00pm 25.9 - - - - S 17 20 9 11 1013.3 1013.3 -
28/04:30pm 25.9 - - - - S 19 22 10 12 1013.2 1013.2 -
28/04:00pm 25.6 - - - - E 4 7 2 4 1012.9 1012.9 -
28/03:30pm 25.3 - - - - NE 4 7 2 4 1013.0 1013.0 -
28/03:00pm 24.7 - - - - E 11 15 6 8 1013.0 1013.0 -
28/02:30pm 24.7 - - - - ESE 9 11 5 6 1013.2 1013.2 -
28/02:00pm 24.1 - - - - ESE 13 19 7 10 1013.6 1013.6 -
28/01:30pm 23.7 - - - - SE 17 20 9 11 1013.9 1013.9 -
28/01:00pm 23.4 - - - - SE 19 24 10 13 1014.5 1014.5 -
28/12:30pm 23.1 - - - - SE 17 20 9 11 1015.0 1015.0 -
28/12:00pm 22.6 - - - - SSE 22 26 12 14 1015.7 1015.7 -
28/11:30am 22.3 - - - - SSE 22 30 12 16 1016.3 1016.3 -
28/11:00am 21.8 - - - - S 22 30 12 16 1016.9 1016.9 -
28/10:30am 21.4 - - - - SSE 22 28 12 15 1017.5 1017.5 -
28/10:00am 20.9 - - - - S 20 26 11 14 1017.6 1017.6 -
28/09:30am 20.5 - - - - S 22 30 12 16 1017.6 1017.6 -
28/09:00am 20.1 - - - - S 28 35 15 19 1017.4 1017.4 -
28/08:30am 20.1 - - - - SSW 22 30 12 16 1017.3 1017.3 -
28/08:00am 19.9 - - - - SSW 26 35 14 19 1017.2 1017.2 -
28/07:30am 20.0 - - - - SSW 26 33 14 18 1016.9 1016.9 -
28/07:00am 20.3 - - - - S 28 39 15 21 1016.8 1016.8 -
28/06:30am 20.9 - - - - SSW 22 33 12 18 1016.4 1016.4 -
28/06:00am 21.1 - - - - SSW 17 26 9 14 1015.8 1015.8 -
28/05:30am 21.4 - - - - SSW 19 26 10 14 1015.3 1015.3 -
28/05:00am 21.6 - - - - SSW 19 26 10 14 1014.8 1014.8 -
28/04:30am 22.0 - - - - S 26 37 14 20 1014.7 1014.7 -
28/04:00am 22.6 - - - - S 30 37 16 20 1014.6 1014.6 -
28/03:30am 22.8 - - - - S 28 37 15 20 1014.4 1014.4 -
28/03:00am 23.5 - - - - S 15 24 8 13 1014.0 1014.0 -
28/02:30am 23.7 - - - - S 24 32 13 17 1013.8 1013.8 -
28/02:00am 24.0 - - - - SSW 22 28 12 15 1013.9 1013.9 -
28/01:30am 24.4 - - - - SSW 26 39 14 21 1013.9 1013.9 -
28/01:00am 24.6 - - - - SSW 22 35 12 19 1014.2 1014.2 -
28/12:30am 24.8 - - - - SSW 20 30 11 16 1014.3 1014.3 -
28/12:00am 25.2 - - - - SSW 19 26 10 14 1014.4 1014.4 -
 
Date/Time
EST
Temp
°C
App
Temp
°C
Dew
Point
°C
Rel
Hum
%
Delta-T
°C
Wind Press
QNH
hPa
Press
MSL
hPa
Rain since
9am
mm
Dir  Spd
km/h
Gust
km/h
Spd
kts
Gust
kts
27/11:30pm 25.8 - - - - SSW 15 24 8 13 1014.3 1014.3 -
27/11:00pm 26.3 - - - - SSW 19 24 10 13 1014.3 1014.3 -
27/10:30pm 26.1 - - - - SSW 15 20 8 11 1014.1 1014.1 -
27/10:00pm 25.9 - - - - S 19 22 10 12 1014.0 1014.0 -
27/09:30pm 24.9 - - - - WSW 9 13 5 7 1013.9 1013.9 -
27/09:00pm 25.0 - - - - W 6 9 3 5 1013.6 1013.6 -
27/08:30pm 24.0 - - - - WNW 9 11 5 6 1013.2 1013.2 -
27/08:00pm 25.0 - - - - W 4 7 2 4 1012.8 1012.8 -
27/07:30pm 25.1 - - - - WNW 4 7 2 4 1012.3 1012.3 -
27/07:00pm 25.1 - - - - WNW 6 9 3 5 1011.7 1011.7 -
27/06:30pm 25.5 - - - - NW 6 7 3 4 1011.4 1011.4 -
27/06:00pm 26.9 - - - - N 4 9 2 5 1011.1 1011.1 -
27/05:30pm 27.5 - - - - NNE 2 7 1 4 1010.6 1010.6 -
27/05:00pm 27.5 - - - - NNE 11 20 6 11 1010.3 1010.3 -
27/04:30pm 27.5 - - - - NNE 15 22 8 12 1009.8 1009.8 -
27/04:00pm 28.1 - - - - NNE 11 17 6 9 1009.7 1009.7 -
27/03:30pm 28.2 - - - - NNE 13 22 7 12 1009.7 1009.7 -
27/03:00pm 27.6 - - - - N 11 26 6 14 1009.9 1009.9 -
27/02:30pm 26.9 - - - - NNE 17 22 9 12 1010.3 1010.3 -
27/02:00pm 27.3 - - - - NNE 11 22 6 12 1010.5 1010.5 -
27/01:30pm 27.5 - - - - NNE 9 20 5 11 1011.0 1011.0 -
27/01:00pm 26.7 - - - - NNE 13 20 7 11 1011.4 1011.4 -
27/12:30pm 26.3 - - - - NE 9 17 5 9 1011.9 1011.9 -
27/12:00pm 26.1 - - - - NE 9 15 5 8 1012.3 1012.3 -
27/11:30am 26.0 - - - - NNE 9 15 5 8 1012.9 1012.9 -
27/11:00am 25.8 - - - - NE 7 15 4 8 1013.4 1013.4 -
27/10:30am 25.4 - - - - ENE 9 13 5 7 1013.6 1013.6 -
27/10:00am 25.3 - - - - NE 6 9 3 5 1013.8 1013.8 -
27/09:30am 24.8 - - - - E 6 9 3 5 1013.9 1013.9 -
27/09:00am 24.7 - - - - ENE 6 7 3 4 1013.8 1013.8 -
27/08:30am 24.3 - - - - SE 2 6 1 3 1013.7 1013.7 -
27/08:00am 23.5 - - - - WNW 4 6 2 3 1013.4 1013.4 -
27/07:30am 23.2 - - - - NNW 4 4 2 2 1013.2 1013.2 -
27/07:00am 22.7 - - - - CALM 0 2 0 1 1012.9 1012.9 -
27/06:30am 22.0 - - - - WNW 7 13 4 7 1012.4 1012.4 -
27/06:00am 23.1 - - - - E 2 4 1 2 1012.0 1012.0 -
27/05:30am 23.0 - - - - NNE 9 13 5 7 1011.7 1011.7 -
27/05:00am 22.6 - - - - WNW 4 6 2 3 1011.9 1011.9 -
27/04:30am 23.0 - - - - S 6 9 3 5 1011.5 1011.5 -
27/04:00am 22.8 - - - - SSW 13 17 7 9 1011.6 1011.6 -
27/03:30am 23.4 - - - - SW 13 15 7 8 1011.5 1011.5 -
27/03:00am 23.1 - - - - W 7 13 4 7 1011.3 1011.3 -
27/02:30am 23.2 - - - - SW 15 17 8 9 1011.3 1011.3 -
27/02:00am 22.9 - - - - WNW 4 11 2 6 1011.5 1011.5 -
27/01:30am 23.3 - - - - SW 6 9 3 5 1011.9 1011.9 -
27/01:00am 23.8 - - - - SW 6 9 3 5 1012.3 1012.3 -
27/12:30am 23.9 - - - - WSW 2 7 1 4 1012.4 1012.4 -
27/12:00am 24.3 - - - - S 6 11 3 6 1012.6 1012.6 -
 
Date/Time
EST
Temp
°C
App
Temp
°C
Dew
Point
°C
Rel
Hum
%
Delta-T
°C
Wind Press
QNH
hPa
Press
MSL
hPa
Rain since
9am
mm
Dir  Spd
km/h
Gust
km/h
Spd
kts
Gust
kts
26/11:30pm 24.7 - - - - ENE 2 6 1 3 1012.6 1012.6 -
26/11:00pm 24.0 - - - - NW 4 9 2 5 1012.7 1012.7 -
26/10:30pm 24.6 - - - - E 4 7 2 4 1012.8 1012.8 -
26/10:00pm 23.5 - - - - N 9 13 5 7 1012.9 1012.9 -
26/09:30pm 23.2 - - - - NW 4 11 2 6 1013.0 1013.0 -
26/09:00pm 23.9 - - - - SSW 2 11 1 6 1013.0 1013.0 -
26/08:30pm 24.0 - - - - NW 2 6 1 3 1012.9 1012.9 -
26/08:00pm 24.6 - - - - WNW 4 7 2 4 1012.5 1012.5 -
26/07:30pm 24.7 - - - - NNW 7 13 4 7 1012.2 1012.2 -
26/07:00pm 25.2 - - - - NW 6 11 3 6 1011.9 1011.9 -
26/06:30pm 24.7 - - - - WNW 7 13 4 7 1011.6 1011.6 -
26/06:00pm 24.9 - - - - NW 7 15 4 8 1011.3 1011.3 -
26/05:30pm 25.1 - - - - NW 7 17 4 9 1011.3 1011.3 -
26/05:00pm 25.5 - - - - N 2 9 1 5 1011.2 1011.2 -
26/04:30pm 25.6 - - - - ENE 7 19 4 10 1011.3 1011.3 -
26/04:00pm 25.7 - - - - NE 9 24 5 13 1011.3 1011.3 -
26/03:30pm 25.9 - - - - ENE 11 20 6 11 1011.3 1011.3 -
26/03:00pm 25.9 - - - - ENE 7 20 4 11 1011.4 1011.4 -
26/02:30pm 26.1 - - - - NE 9 20 5 11 1011.5 1011.5 -
26/02:00pm 25.8 - - - - NE 9 19 5 10 1012.0 1012.0 -
26/01:30pm 25.6 - - - - ENE 9 17 5 9 1012.3 1012.3 -
26/01:00pm 25.3 - - - - ENE 13 17 7 9 1012.7 1012.7 -
26/12:30pm 24.9 - - - - ENE 11 15 6 8 1013.2 1013.2 -
26/12:00pm 24.9 - - - - E 11 15 6 8 1013.7 1013.7 -
26/11:30am 24.8 - - - - E 9 11 5 6 1014.4 1014.4 -
26/11:00am 24.7 - - - - ESE 9 11 5 6 1014.8 1014.8 -
26/10:30am 24.5 - - - - ESE 9 11 5 6 1015.0 1015.0 -
26/10:00am 24.3 - - - - SE 6 7 3 4 1015.2 1015.2 -
26/09:30am 25.7 - - - - CALM 0 2 0 1 1015.3 1015.3 -
26/09:00am 23.7 - - - - SW 4 6 2 3 1014.9 1014.9 -
26/08:30am 23.2 - - - - SSW 6 7 3 4 1014.9 1014.9 -
26/08:00am 23.4 - - - - SSW 4 7 2 4 1014.7 1014.7 -
26/07:30am 23.8 - - - - CALM 0 2 0 1 1014.4 1014.4 -
26/07:00am 22.7 - - - - CALM 0 4 0 2 1014.5 1014.5 -
26/06:30am 22.5 - - - - WNW 4 6 2 3 1014.3 1014.3 -
26/06:00am 22.5 - - - - NW 4 6 2 3 1013.8 1013.8 -
26/05:30am 22.0 - - - - WNW 4 6 2 3 1013.6 1013.6 -
26/05:00am 21.8 - - - - NW 6 7 3 4 1013.5 1013.5 -
26/04:30am 21.8 - - - - WNW 6 6 3 3 1013.5 1013.5 -
26/04:00am 22.5 - - - - NW 6 7 3 4 1013.6 1013.6 -
26/03:30am 22.2 - - - - WNW 6 6 3 3 1013.5 1013.5 -
26/03:00am 23.0 - - - - NW 6 7 3 4 1013.6 1013.6 -
26/02:30am 22.2 - - - - WNW 6 7 3 4 1013.7 1013.7 -
26/02:00am 22.9 - - - - WNW 6 6 3 3 1013.9 1013.9 -
26/01:30am 22.4 - - - - WNW 7 7 4 4 1014.1 1014.1 -
26/01:00am 23.5 - - - - WNW 4 7 2 4 1014.5 1014.5 -
26/12:30am 23.7 - - - - WSW 2 4 1 2 1014.9 1014.9 -
26/12:00am 24.8 - - - - SSE 7 9 4 5 1015.0 1015.0 -
 
Date/Time
EST
Temp
°C
App
Temp
°C
Dew
Point
°C
Rel
Hum
%
Delta-T
°C
Wind Press
QNH
hPa
Press
MSL
hPa
Rain since
9am
mm
Dir  Spd
km/h
Gust
km/h
Spd
kts
Gust
kts
25/11:30pm 25.3 - - - - ESE 11 13 6 7 1015.3 1015.3 -
25/11:00pm 25.4 - - - - E 13 15 7 8 1015.4 1015.4 -
25/10:30pm 25.5 - - - - ESE 13 15 7 8 1015.6 1015.6 -

Other Formats:

Comma delimited format used in spreadsheet applications
http://www.bom.gov.au/fwo/IDQ60801/IDQ60801.94297.axf

JavaScript Object Notation format (JSON) in row-major order
http://www.bom.gov.au/fwo/IDQ60801/IDQ60801.94297.json